KRWL/RWL METAR and TAF weather

Enter ICAO airport designator
Station Type Date Time Source
KRWL METAR 2019/06/27 03:53 UTC NOAA

KRWL 270353Z AUTO 21010KT 10SM CLR 18/M06 A3013 RMK AO2 SLP107 T01831056


Station Type Date Time Source
KRWL Decoded METAR 2019/06/27 03:53 UTC NOAA

RAWLINS MUNICIPAL AIRPORT, WY, United States (KRWL) 41-48N 107-12W
Jun 26, 2019 - 11:53 PM EDT / 2019.06.27 0353 UTC
Wind: from the SSW (210 degrees) at 12 MPH (10 KT):0
Visibility: 10 mile(s):0
Sky conditions: clear
Temperature: 64.9 F (18.3 C)
Dew Point: 21.9 F (-5.6 C)
Relative Humidity: 19%
Pressure (altimeter): 30.13 in. Hg (1020 hPa)
ob: KRWL 270353Z AUTO 21010KT 10SM CLR 18/M06 A3013 RMK AO2 SLP107 T01831056
cycle: 4

Station Type Date Time Source
KRWL TAF 2019/06/26 18:48 UTC NOAA

TAF KRWL 261744Z 2618/2718 22005KT P6SM FEW250
FM261900 22019G27KT P6SM FEW250
FM270300 22008KT P6SM FEW250
FM271200 17005KT P6SM SKC

Example: see airport list